Time;durP1;ratioP1;P1;durP2;ratioP2;P2;SDS_P1;SDS_P2;PMS_P1;PMS_P2;Temp;Humidity;BMP_temperature;BMP_pressure;BME280_temperature;BME280_humidity;BME280_pressure;Samples;Min_cycle;Max_cycle;Signal;HPM_P1;HPM_P2
2024/03/17 00:01:10;;;;;;;10.75;8.20;;;;;;;6.47;100.00;102212.63;10485395;28;20035;-68
2024/03/17 00:06:10;;;;;;;21.95;8.82;;;;;;;6.45;100.00;102206.56;10500500;28;20079;-68
2024/03/17 00:11:11;;;;;;;8.23;6.20;;;;;;;6.37;100.00;102209.91;10502575;28;20036;-68
2024/03/17 00:16:13;;;;;;;8.77;5.70;;;;;;;6.33;100.00;102208.50;10503057;28;20439;-68
2024/03/17 00:21:13;;;;;;;12.57;6.95;;;;;;;6.30;100.00;102200.69;10500766;28;20436;-68
2024/03/17 00:26:14;;;;;;;6.43;4.90;;;;;;;6.31;100.00;102199.69;10501063;28;20119;-68
2024/03/17 00:31:18;;;;;;;17.00;6.90;;;;;;;6.36;100.00;102205.53;10500440;28;20032;-68
2024/03/17 00:36:18;;;;;;;8.35;5.32;;;;;;;6.48;100.00;102195.50;10500609;28;20052;-68
2024/03/17 00:41:19;;;;;;;17.58;6.57;;;;;;;6.59;100.00;102195.38;10499923;28;20040;-68
2024/03/17 00:46:20;;;;;;;7.18;4.80;;;;;;;6.70;100.00;102189.88;10499113;28;20028;-68
2024/03/17 00:51:21;;;;;;;13.35;5.95;;;;;;;6.77;100.00;102189.31;10500749;28;20025;-68
2024/03/17 00:56:21;;;;;;;7.20;5.30;;;;;;;6.80;100.00;102189.03;10500355;28;20448;-68
2024/03/17 01:01:22;;;;;;;9.13;5.47;;;;;;;6.71;100.00;102180.81;10499137;28;20025;-68
2024/03/17 01:06:22;;;;;;;6.88;5.63;;;;;;;6.59;100.00;102178.38;10499507;28;20053;-68
2024/03/17 01:11:24;;;;;;;5.57;4.93;;;;;;;6.51;100.00;102176.41;10499663;28;20028;-68
2024/03/17 01:16:25;;;;;;;17.13;5.13;;;;;;;6.38;100.00;102167.72;10498496;28;20035;-68
2024/03/17 01:21:25;;;;;;;9.73;5.32;;;;;;;6.26;100.00;102167.84;10500034;28;20032;-68
2024/03/17 01:26:26;;;;;;;7.35;5.55;;;;;;;6.13;100.00;102169.94;10499970;28;20432;-68
2024/03/17 01:31:26;;;;;;;8.43;5.78;;;;;;;6.02;100.00;102156.59;10498061;28;20028;-68
2024/03/17 01:36:26;;;;;;;13.98;6.72;;;;;;;5.96;100.00;102160.66;10498074;28;20340;-68
2024/03/17 01:41:27;;;;;;;11.80;5.97;;;;;;;5.98;100.00;102144.41;10501233;28;20028;-68
2024/03/17 01:46:27;;;;;;;11.43;6.07;;;;;;;5.95;100.00;102139.31;10497859;28;20027;-68
2024/03/17 01:51:28;;;;;;;9.27;7.00;;;;;;;5.89;100.00;102135.28;10497959;28;20109;-68
2024/03/17 01:56:29;;;;;;;7.13;5.75;;;;;;;5.91;100.00;102127.09;10496809;28;20032;-68
2024/03/17 02:01:30;;;;;;;6.50;5.60;;;;;;;5.86;100.00;102132.03;10498347;28;20035;-68
2024/03/17 02:06:31;;;;;;;7.78;6.72;;;;;;;5.85;100.00;102123.13;10498797;28;20083;-68
2024/03/17 02:11:32;;;;;;;7.53;5.82;;;;;;;5.95;100.00;102112.44;10497619;28;20417;-68
2024/03/17 02:16:33;;;;;;;12.90;7.40;;;;;;;5.96;100.00;102112.28;10479444;28;20050;-69
2024/03/17 02:21:33;;;;;;;11.43;8.25;;;;;;;5.98;100.00;102118.38;10497424;28;20024;-68
2024/03/17 02:26:35;;;;;;;13.40;7.53;;;;;;;6.13;100.00;102107.25;10497094;28;20142;-68
2024/03/17 02:31:36;;;;;;;10.13;7.55;;;;;;;6.35;100.00;102109.69;10495997;28;20051;-68
2024/03/17 02:36:36;;;;;;;12.35;8.07;;;;;;;6.56;100.00;102090.69;10497039;28;20421;-68
2024/03/17 02:41:36;;;;;;;10.90;8.07;;;;;;;6.74;100.00;102086.31;10497927;28;20070;-68
2024/03/17 02:46:37;;;;;;;11.82;7.68;;;;;;;6.80;100.00;102081.34;10495078;28;20074;-68
2024/03/17 02:51:39;;;;;;;9.80;6.45;;;;;;;6.81;100.00;102077.66;10497287;28;20338;-68
2024/03/17 02:56:39;;;;;;;6.57;5.45;;;;;;;6.81;100.00;102065.03;10496775;28;20448;-68
2024/03/17 03:01:40;;;;;;;11.07;6.47;;;;;;;6.84;100.00;102071.97;10503934;28;20035;-68
2024/03/17 03:06:40;;;;;;;6.35;5.85;;;;;;;6.94;100.00;102070.94;10505488;28;20049;-68
2024/03/17 03:11:40;;;;;;;13.38;5.80;;;;;;;7.02;100.00;102059.47;10503299;28;20104;-68
2024/03/17 03:16:41;;;;;;;11.65;7.50;;;;;;;7.18;100.00;102048.09;10504846;28;20036;-68
2024/03/17 03:21:41;;;;;;;7.05;5.68;;;;;;;7.27;100.00;102040.94;10505385;28;20090;-68
2024/03/17 03:26:42;;;;;;;9.30;6.85;;;;;;;7.31;100.00;102031.59;10504896;28;20032;-68
2024/03/17 03:31:43;;;;;;;9.20;5.90;;;;;;;7.28;100.00;102015.72;10504249;28;20040;-68
2024/03/17 03:36:43;;;;;;;7.25;6.50;;;;;;;7.23;100.00;102024.22;10502126;28;20115;-68
2024/03/17 03:41:44;;;;;;;10.60;6.68;;;;;;;7.23;100.00;102017.00;10501933;28;20082;-68
2024/03/17 03:46:44;;;;;;;7.15;5.35;;;;;;;7.21;100.00;102005.53;10502345;28;20032;-68
2024/03/17 03:51:45;;;;;;;6.20;5.70;;;;;;;7.18;100.00;101997.75;10502992;28;20028;-68
2024/03/17 03:56:45;;;;;;;9.15;6.22;;;;;;;7.15;100.00;101994.50;10503504;28;20028;-69
2024/03/17 04:01:47;;;;;;;11.52;8.13;;;;;;;7.16;100.00;101994.34;10500556;28;20125;-68
2024/03/17 04:06:48;;;;;;;8.85;6.35;;;;;;;7.16;100.00;101990.81;10502470;28;20041;-68
2024/03/17 04:11:49;;;;;;;11.35;8.50;;;;;;;7.09;100.00;101995.09;10501383;28;20029;-68
2024/03/17 04:16:49;;;;;;;9.73;7.82;;;;;;;7.15;100.00;102005.28;10501647;28;20064;-68
2024/03/17 04:21:50;;;;;;;9.77;7.88;;;;;;;7.21;100.00;101993.88;10484450;28;20044;-68
2024/03/17 04:26:50;;;;;;;8.05;7.35;;;;;;;7.26;100.00;101985.38;10485357;28;20038;-68
2024/03/17 04:31:50;;;;;;;10.15;7.13;;;;;;;7.18;100.00;101988.81;10501098;28;20033;-68
2024/03/17 04:36:51;;;;;;;9.05;7.13;;;;;;;7.07;100.00;101979.06;10500238;28;20051;-68
2024/03/17 04:41:52;;;;;;;8.93;7.82;;;;;;;7.09;100.00;101981.63;10500859;28;20036;-68
2024/03/17 04:46:54;;;;;;;13.82;8.90;;;;;;;7.14;100.00;101982.84;10500500;28;20445;-68
2024/03/17 04:51:54;;;;;;;8.95;7.18;;;;;;;7.17;100.00;101982.56;10500933;28;20025;-69
2024/03/17 04:56:54;;;;;;;11.73;7.10;;;;;;;7.18;100.00;101969.97;10500273;28;20036;-68
2024/03/17 05:01:55;;;;;;;13.10;8.00;;;;;;;7.11;100.00;101971.53;10499995;28;20036;-68
2024/03/17 05:06:55;;;;;;;12.80;7.85;;;;;;;7.05;100.00;101964.91;10499526;28;20425;-68
2024/03/17 05:11:56;;;;;;;10.57;7.50;;;;;;;7.11;100.00;101958.91;10498844;28;20376;-68
2024/03/17 05:16:56;;;;;;;16.52;8.05;;;;;;;7.09;100.00;101966.31;10497187;28;20348;-68
2024/03/17 05:21:57;;;;;;;8.55;7.15;;;;;;;7.11;100.00;101975.06;10498224;28;20037;-68
2024/03/17 05:26:57;;;;;;;12.73;9.23;;;;;;;7.13;100.00;101970.41;10499608;28;20429;-68
2024/03/17 05:31:57;;;;;;;9.48;8.40;;;;;;;7.20;100.00;101968.78;10498706;28;20024;-68
2024/03/17 05:36:58;;;;;;;8.40;7.63;;;;;;;7.15;100.00;101964.88;10499378;28;20466;-68
2024/03/17 05:41:58;;;;;;;10.23;7.82;;;;;;;7.18;100.00;101965.41;10497930;28;20037;-68
2024/03/17 05:46:59;;;;;;;14.55;9.38;;;;;;;7.20;100.00;101955.31;10497552;28;20032;-68
2024/03/17 05:51:59;;;;;;;19.85;9.43;;;;;;;7.22;100.00;101956.03;10498871;28;20024;-68
2024/03/17 05:57:00;;;;;;;12.70;9.07;;;;;;;7.20;100.00;101958.00;10498650;28;20033;-68
2024/03/17 06:02:00;;;;;;;13.25;8.82;;;;;;;7.19;100.00;101959.03;10499107;28;20032;-68
2024/03/17 06:07:01;;;;;;;10.77;9.38;;;;;;;7.24;100.00;101966.66;10498843;28;20051;-68
2024/03/17 06:12:01;;;;;;;14.20;10.27;;;;;;;7.38;100.00;101957.22;10499172;28;20490;-68
2024/03/17 06:17:02;;;;;;;11.00;9.75;;;;;;;7.52;100.00;101969.34;10496247;28;20106;-68
2024/03/17 06:22:02;;;;;;;10.05;8.60;;;;;;;7.66;100.00;101969.69;10497524;28;20036;-68
2024/03/17 06:27:03;;;;;;;9.25;7.88;;;;;;;7.76;100.00;101964.22;10496573;28;20031;-68
2024/03/17 06:32:04;;;;;;;24.10;10.80;;;;;;;7.84;100.00;101956.19;10497545;28;20029;-68
2024/03/17 06:37:04;;;;;;;10.18;8.30;;;;;;;7.95;100.00;101965.94;10495279;28;20044;-68
2024/03/17 06:42:05;;;;;;;12.32;9.90;;;;;;;8.09;100.00;101980.72;10479690;28;20029;-68
2024/03/17 06:47:05;;;;;;;10.82;9.50;;;;;;;8.25;100.00;101963.81;10497040;28;20036;-68
2024/03/17 06:52:06;;;;;;;8.52;7.15;;;;;;;8.31;100.00;101963.19;10496499;28;20079;-68
2024/03/17 06:57:06;;;;;;;11.27;8.60;;;;;;;8.46;100.00;101968.91;10495856;28;20032;-68
2024/03/17 07:02:07;;;;;;;8.70;7.90;;;;;;;8.66;100.00;101966.84;10494627;28;20115;-68
2024/03/17 07:07:07;;;;;;;13.05;8.30;;;;;;;8.89;100.00;101965.28;10494452;28;20103;-68
2024/03/17 07:12:08;;;;;;;9.73;7.40;;;;;;;9.04;100.00;101961.00;10494558;28;20044;-68
2024/03/17 07:17:08;;;;;;;11.40;7.97;;;;;;;9.05;100.00;101981.59;10494487;28;20040;-68
2024/03/17 07:22:09;;;;;;;10.75;9.25;;;;;;;8.90;100.00;101987.75;10495327;28;20123;-68
2024/03/17 07:27:13;;;;;;;10.95;9.18;;;;;;;8.82;100.00;101986.69;10494273;28;20028;-68
2024/03/17 07:32:13;;;;;;;10.50;8.85;;;;;;;8.87;100.00;101977.25;10494778;28;20476;-67
2024/03/17 07:37:14;;;;;;;9.55;8.40;;;;;;;8.95;100.00;101978.16;10494888;28;20044;-68
2024/03/17 07:42:14;;;;;;;9.63;8.40;;;;;;;9.04;100.00;101973.66;10495569;28;20107;-67
2024/03/17 07:47:14;;;;;;;17.13;9.57;;;;;;;9.14;100.00;101981.66;10501140;28;20078;-67
2024/03/17 07:52:15;;;;;;;9.38;8.13;;;;;;;9.17;100.00;101973.22;10503289;28;20123;-69
2024/03/17 07:57:16;;;;;;;10.73;8.18;;;;;;;9.26;100.00;101983.06;10501065;28;20028;-68
2024/03/17 08:02:16;;;;;;;11.40;8.02;;;;;;;9.23;100.00;101973.41;10503673;28;20033;-68
2024/03/17 08:07:17;;;;;;;12.63;7.30;;;;;;;9.23;100.00;101978.81;10501152;28;20067;-68
2024/03/17 08:12:17;;;;;;;9.18;8.23;;;;;;;9.27;100.00;101976.63;10501797;28;20512;-68
2024/03/17 08:17:18;;;;;;;10.85;9.10;;;;;;;9.35;100.00;101978.50;10500676;28;20039;-69
2024/03/17 08:22:18;;;;;;;15.00;7.78;;;;;;;9.30;100.00;101973.59;10501337;28;20052;-68
2024/03/17 08:27:18;;;;;;;10.25;8.68;;;;;;;9.27;100.00;101976.63;10502557;28;20024;-69
2024/03/17 08:32:19;;;;;;;10.20;8.82;;;;;;;9.42;100.00;101969.59;10501450;28;20375;-69
2024/03/17 08:37:19;;;;;;;9.95;7.55;;;;;;;9.66;100.00;101968.81;10500976;28;20020;-69
2024/03/17 08:42:20;;;;;;;7.80;7.00;;;;;;;9.80;100.00;101970.03;10501626;28;20411;-69
2024/03/17 08:47:20;;;;;;;17.02;7.60;;;;;;;9.86;100.00;101963.97;10499380;28;20114;-69
2024/03/17 08:52:21;;;;;;;9.48;7.45;;;;;;;9.93;100.00;101961.44;10501324;28;20029;-69
2024/03/17 08:57:21;;;;;;;12.68;7.50;;;;;;;10.31;100.00;101956.41;10481188;28;20115;-69
2024/03/17 09:02:21;;;;;;;12.00;8.57;;;;;;;10.73;100.00;101945.34;10500637;28;20032;-69
2024/03/17 09:07:22;;;;;;;8.60;7.28;;;;;;;11.12;100.00;101936.41;10500917;28;20363;-69
2024/03/17 09:12:22;;;;;;;7.68;6.85;;;;;;;11.37;100.00;101939.88;10481632;28;20371;-69
2024/03/17 09:17:23;;;;;;;7.55;6.85;;;;;;;11.54;100.00;101937.91;10499400;28;20028;-68
2024/03/17 09:22:23;;;;;;;9.65;7.25;;;;;;;11.54;100.00;101930.59;10500027;28;20070;-69
2024/03/17 09:27:25;;;;;;;12.38;7.50;;;;;;;11.61;100.00;101928.00;10497780;28;20098;-70
2024/03/17 09:32:26;;;;;;;6.85;6.18;;;;;;;12.11;100.00;101913.09;10497833;28;20031;-69
2024/03/17 09:37:27;;;;;;;10.05;6.97;;;;;;;12.54;100.00;101918.81;10498537;28;20314;-69
2024/03/17 09:42:27;;;;;;;12.35;7.22;;;;;;;12.46;100.00;101919.72;10499408;28;20071;-69
2024/03/17 09:47:27;;;;;;;11.38;7.03;;;;;;;12.59;100.00;101915.53;10498965;28;20034;-68
2024/03/17 09:52:28;;;;;;;7.55;6.70;;;;;;;12.60;100.00;101912.63;10496684;28;20028;-68
2024/03/17 09:57:30;;;;;;;9.23;5.38;;;;;;;12.54;100.00;101922.38;10497617;28;20356;-69
2024/03/17 10:02:30;;;;;;;9.45;7.22;;;;;;;12.55;100.00;101912.34;10495746;28;20043;-68
2024/03/17 10:07:40;;;;;;;12.90;6.50;;;;;;;13.47;100.00;101906.50;10498149;28;20048;-69
2024/03/17 10:12:40;;;;;;;6.13;5.57;;;;;;;13.53;100.00;101905.72;10497608;28;20116;-69
2024/03/17 10:17:41;;;;;;;6.10;5.68;;;;;;;13.90;100.00;101909.22;10497800;28;20120;-69
2024/03/17 10:23:01;;;;;;;8.20;5.72;;;;;;;13.96;100.00;101901.13;10496866;28;20040;-69
2024/03/17 10:28:01;;;;;;;9.35;6.22;;;;;;;14.17;100.00;101897.53;10495393;28;20028;-69
2024/03/17 10:33:02;;;;;;;7.90;5.72;;;;;;;13.98;100.00;101898.22;10478657;28;20051;-69
2024/03/17 10:38:06;;;;;;;9.65;5.35;;;;;;;13.50;100.00;101906.09;10495927;28;20021;-69
2024/03/17 10:43:07;;;;;;;7.65;5.00;;;;;;;13.20;100.00;101895.25;10494548;28;20033;-69
2024/03/17 10:48:08;;;;;;;8.57;5.78;;;;;;;13.07;100.00;101899.69;10478400;28;20096;-69
2024/03/17 10:53:08;;;;;;;8.50;5.18;;;;;;;12.75;100.00;101893.59;10494930;28;20016;-69
2024/03/17 10:58:22;;;;;;;7.53;4.97;;;;;;;12.60;100.00;101888.16;10494913;28;20029;-69
2024/03/17 11:03:23;;;;;;;11.38;6.40;;;;;;;12.51;100.00;101892.03;10496772;28;20020;-69
2024/03/17 11:08:23;;;;;;;12.00;6.13;;;;;;;12.11;100.00;101883.22;10495417;28;20080;-69
2024/03/17 11:13:31;;;;;;;9.75;5.93;;;;;;;11.98;100.00;101875.72;10477633;28;20048;-69
2024/03/17 11:18:34;;;;;;;6.13;5.53;;;;;;;12.21;100.00;101866.69;10497306;28;20101;-69
2024/03/17 11:23:34;;;;;;;11.90;7.03;;;;;;;12.57;100.00;101864.06;10504574;28;20030;-69
2024/03/17 11:28:41;;;;;;;12.77;5.85;;;;;;;12.69;100.00;101857.16;10502258;28;20337;-69
2024/03/17 11:33:44;;;;;;;;;;;;;;;12.91;100.00;101860.78;10503975;28;20396;-69
2024/03/17 11:39:00;;;;;;;11.73;7.22;;;;;;;12.77;100.00;101859.78;10503566;28;19911;-69
2024/03/17 11:44:32;;;;;;;7.38;6.07;;;;;;;12.68;100.00;101860.06;10504192;28;20047;-69
2024/03/17 11:49:38;;;;;;;9.15;4.78;;;;;;;12.87;100.00;101853.22;10502711;28;20041;-69
2024/03/17 11:54:39;;;;;;;;;;;;;;;13.06;100.00;101838.19;10503161;28;20416;-69
2024/03/17 11:59:40;;;;;;;6.28;5.18;;;;;;;13.00;100.00;101837.06;10501252;28;19939;-69
2024/03/17 12:04:41;;;;;;;9.77;7.22;;;;;;;13.19;100.00;101830.19;10500699;28;20355;-69
2024/03/17 12:09:42;;;;;;;7.32;6.63;;;;;;;13.68;100.00;101818.56;10500865;28;20059;-69
2024/03/17 12:14:42;;;;;;;12.00;6.60;;;;;;;14.01;100.00;101816.13;10503724;28;20348;-69
2024/03/17 12:19:44;;;;;;;12.23;5.45;;;;;;;13.81;100.00;101799.59;10501289;28;20041;-69
2024/03/17 12:24:46;;;;;;;11.23;6.60;;;;;;;13.43;100.00;101807.22;10501143;28;20356;-68
2024/03/17 12:29:53;;;;;;;11.60;6.00;;;;;;;13.29;100.00;101798.09;10501315;28;20028;-69
2024/03/17 12:34:59;;;;;;;6.72;6.03;;;;;;;13.60;100.00;101788.75;10499970;28;20073;-69
2024/03/17 12:40:00;;;;;;;;;;;;;;;13.85;100.00;101791.91;10500868;28;20025;-69
2024/03/17 12:45:07;;;;;;;5.22;4.75;;;;;;;14.00;100.00;101778.19;10482737;28;19954;-69
2024/03/17 12:50:13;;;;;;;8.45;5.88;;;;;;;14.36;100.00;101761.66;10502602;28;20032;-69
2024/03/17 13:00:36;;;;;;;10.98;4.60;;;;;;;13.92;100.00;101760.13;10498724;28;20458;-69
2024/03/17 13:05:37;;;;;;;12.65;5.68;;;;;;;14.31;100.00;101756.78;10499783;28;20047;-69
2024/03/17 13:10:37;;;;;;;7.32;5.28;;;;;;;14.60;100.00;101749.41;10501112;28;20045;-69
2024/03/17 13:15:38;;;;;;;9.05;4.88;;;;;;;15.02;100.00;101740.09;10500459;28;20063;-69
2024/03/17 13:20:39;;;;;;;7.75;5.28;;;;;;;15.24;100.00;101750.84;10500897;28;20059;-68
2024/03/17 13:25:43;;;;;;;5.60;5.18;;;;;;;14.85;100.00;101726.00;10497859;28;20468;-69
2024/03/17 13:30:43;;;;;;;6.80;5.35;;;;;;;14.54;100.00;101723.81;10498535;28;20037;-70
2024/03/17 13:35:44;;;;;;;9.18;5.35;;;;;;;14.40;100.00;101727.50;10497868;28;20028;-69
2024/03/17 13:40:44;;;;;;;4.70;4.18;;;;;;;14.26;100.00;101725.75;10498770;28;20032;-69
2024/03/17 13:45:47;;;;;;;11.52;5.82;;;;;;;14.41;100.00;101716.38;10496649;28;20036;-69
2024/03/17 13:50:49;;;;;;;7.65;5.00;;;;;;;14.71;100.00;101707.09;10497806;28;20031;-69
2024/03/17 13:55:51;;;;;;;5.18;4.68;;;;;;;14.88;100.00;101706.53;10497897;28;20455;-69
2024/03/17 14:00:52;;;;;;;10.00;6.15;;;;;;;14.85;100.00;101692.47;10497694;28;20037;-69
2024/03/17 14:05:53;;;;;;;13.85;6.07;;;;;;;14.48;100.00;101689.16;10496308;28;20067;-69
2024/03/17 14:10:53;;;;;;;7.50;4.68;;;;;;;14.15;100.00;101683.59;10496920;28;20035;-70
2024/03/17 14:15:57;;;;;;;9.68;6.05;;;;;;;13.77;100.00;101681.25;10497537;28;20486;-69
2024/03/17 14:20:58;;;;;;;7.55;4.72;;;;;;;13.87;100.00;101686.34;10495848;28;20040;-69
2024/03/17 14:25:59;;;;;;;8.02;4.60;;;;;;;13.54;100.00;101684.25;10496153;28;20032;-69
2024/03/17 14:30:59;;;;;;;7.78;5.43;;;;;;;13.20;100.00;101674.94;10496861;28;20078;-69
2024/03/17 14:36:00;;;;;;;3.35;3.05;;;;;;;13.09;100.00;101667.31;10496744;28;20041;-69
2024/03/17 14:41:01;;;;;;;1.35;1.25;;;;;;;13.01;100.00;101657.41;10495253;28;20129;-69
2024/03/17 14:46:01;;;;;;;0.95;0.95;;;;;;;12.96;100.00;101651.72;10495244;28;20040;-69
2024/03/17 14:51:02;;;;;;;0.75;0.75;;;;;;;13.01;100.00;101653.84;10496136;28;20071;-69
2024/03/17 14:56:03;;;;;;;0.70;0.70;;;;;;;12.91;100.00;101653.34;10495752;28;20040;-69
2024/03/17 15:01:03;;;;;;;0.73;0.73;;;;;;;12.90;100.00;101646.22;10495837;28;20040;-69
2024/03/17 15:06:09;;;;;;;0.88;0.88;;;;;;;12.66;100.00;101647.44;10497357;28;20086;-70
2024/03/17 15:11:09;;;;;;;0.70;0.70;;;;;;;12.59;100.00;101647.38;10495917;28;20050;-70
2024/03/17 15:16:09;;;;;;;0.50;0.50;;;;;;;12.43;100.00;101623.16;10495875;28;20028;-70
2024/03/17 15:21:10;;;;;;;3.22;1.95;;;;;;;12.45;100.00;101627.38;10477624;28;20227;-69
2024/03/17 15:26:12;;;;;;;0.47;0.47;;;;;;;12.41;100.00;101619.78;10495386;28;20116;-72
2024/03/17 15:31:12;;;;;;;0.50;0.50;;;;;;;12.41;100.00;101614.34;10495731;28;20072;-69
2024/03/17 15:36:12;;;;;;;1.02;1.02;;;;;;;12.41;100.00;101617.94;10494090;28;20040;-69
2024/03/17 15:41:13;;;;;;;0.98;0.98;;;;;;;12.34;100.00;101617.84;10494636;28;20029;-70
2024/03/17 15:46:18;;;;;;;0.80;0.80;;;;;;;12.38;100.00;101607.47;10478224;28;20077;-69
2024/03/17 15:51:20;;;;;;;0.82;0.82;;;;;;;12.27;100.00;101618.81;10495986;28;20036;-69
2024/03/17 15:56:21;;;;;;;0.70;0.70;;;;;;;12.23;100.00;101606.66;10493479;28;20033;-69
2024/03/17 16:01:21;;;;;;;0.52;0.52;;;;;;;12.22;100.00;101605.81;10494466;28;20029;-69
2024/03/17 16:06:22;;;;;;;1.35;1.30;;;;;;;12.15;100.00;101598.59;10482556;28;20043;-69
2024/03/17 16:11:27;;;;;;;2.95;2.47;;;;;;;11.98;100.00;101592.56;10502953;28;20032;-70
2024/03/17 16:16:31;;;;;;;0.40;0.40;;;;;;;11.98;100.00;101593.41;10501740;28;20063;-71
2024/03/17 16:21:31;;;;;;;0.77;0.77;;;;;;;11.90;100.00;101590.81;10503127;28;20327;-70
2024/03/17 16:26:36;;;;;;;0.60;0.60;;;;;;;11.78;100.00;101598.53;10501409;28;20028;-71
2024/03/17 16:31:37;;;;;;;0.40;0.40;;;;;;;11.70;100.00;101576.94;10500866;28;20178;-71
2024/03/17 16:36:41;;;;;;;1.30;1.30;;;;;;;11.55;100.00;101592.34;10500138;28;20055;-71
2024/03/17 16:41:41;;;;;;;0.40;0.40;;;;;;;11.51;100.00;101578.34;10500408;28;20348;-70
2024/03/17 16:46:48;;;;;;;1.20;1.20;;;;;;;11.54;100.00;101569.00;10500836;28;20043;-70
2024/03/17 16:51:49;;;;;;;0.93;0.93;;;;;;;11.53;100.00;101570.88;10500605;28;20055;-70
2024/03/17 16:56:49;;;;;;;0.50;0.50;;;;;;;11.56;100.00;101569.66;10499691;28;20028;-71
2024/03/17 17:01:50;;;;;;;0.80;0.80;;;;;;;11.53;100.00;101564.59;10500464;28;20036;-71
2024/03/17 17:06:50;;;;;;;0.75;0.75;;;;;;;11.54;100.00;101558.13;10498788;28;20040;-70
2024/03/17 17:11:53;;;;;;;0.80;0.80;;;;;;;11.47;100.00;101566.19;10498828;28;20119;-71
2024/03/17 17:16:53;;;;;;;0.63;0.63;;;;;;;11.47;100.00;101547.19;10499343;28;20029;-72
2024/03/17 17:21:54;;;;;;;0.40;0.40;;;;;;;11.49;100.00;101541.59;10499637;28;20364;-71
2024/03/17 17:26:55;;;;;;;0.80;0.80;;;;;;;11.45;100.00;101543.00;10498320;28;20442;-71
2024/03/17 17:31:55;;;;;;;1.00;1.00;;;;;;;11.46;100.00;101544.69;10498945;28;20052;-72
2024/03/17 17:36:56;;;;;;;0.85;0.85;;;;;;;11.40;100.00;101540.84;10498849;28;20035;-71
2024/03/17 17:41:58;;;;;;;16.17;2.95;;;;;;;11.34;100.00;101537.00;10498114;28;20093;-71
2024/03/17 17:47:01;;;;;;;0.65;0.65;;;;;;;11.35;100.00;101533.25;10497862;28;20028;-70
2024/03/17 17:52:03;;;;;;;0.40;0.40;;;;;;;11.32;100.00;101525.50;10498233;28;20025;-70
2024/03/17 17:57:05;;;;;;;0.50;0.50;;;;;;;11.33;100.00;101527.19;10497778;28;20020;-71
2024/03/17 18:02:06;;;;;;;0.60;0.60;;;;;;;11.31;100.00;101531.97;10498497;28;20044;-71
2024/03/17 18:07:07;;;;;;;0.55;0.55;;;;;;;11.29;100.00;101523.16;10496427;28;20049;-71
2024/03/17 18:12:07;;;;;;;2.50;2.20;;;;;;;11.25;100.00;101531.88;10497880;28;20052;-70
2024/03/17 18:17:08;;;;;;;0.68;0.68;;;;;;;11.17;100.00;101530.09;10497026;28;20166;-71
2024/03/17 18:22:08;;;;;;;2.65;1.90;;;;;;;11.09;100.00;101536.44;10497165;28;20055;-70
2024/03/17 18:27:09;;;;;;;0.30;0.30;;;;;;;11.08;100.00;101544.75;10495590;28;20060;-71
2024/03/17 18:32:09;;;;;;;1.40;1.35;;;;;;;11.12;100.00;101535.22;10497658;28;20377;-72
2024/03/17 18:37:09;;;;;;;0.40;0.40;;;;;;;11.02;100.00;101532.78;10497520;28;20158;-70
2024/03/17 18:42:10;;;;;;;0.40;0.40;;;;;;;11.03;100.00;101533.63;10496336;28;20040;-71
2024/03/17 18:47:11;;;;;;;0.60;0.60;;;;;;;11.02;100.00;101527.38;10496490;28;20032;-70
2024/03/17 18:52:11;;;;;;;0.57;0.57;;;;;;;10.96;100.00;101527.25;10496488;28;20051;-70
2024/03/17 18:57:12;;;;;;;0.50;0.50;;;;;;;10.95;100.00;101521.00;10496008;28;20071;-71
2024/03/17 19:02:12;;;;;;;0.40;0.40;;;;;;;10.98;100.00;101533.34;10496619;28;20029;-71
2024/03/17 19:07:13;;;;;;;0.50;0.50;;;;;;;10.91;100.00;101522.38;10496171;28;20475;-71
2024/03/17 19:12:13;;;;;;;0.40;0.40;;;;;;;10.93;100.00;101517.63;10496100;28;20028;-71
2024/03/17 19:17:13;;;;;;;0.40;0.40;;;;;;;10.93;100.00;101528.47;10495870;28;20048;-71
2024/03/17 19:22:15;;;;;;;0.65;0.65;;;;;;;10.94;100.00;101511.16;10495691;28;20467;-71
2024/03/17 19:27:15;;;;;;;0.43;0.43;;;;;;;10.98;100.00;101519.81;10496091;28;20034;-70
2024/03/17 19:32:16;;;;;;;0.60;0.60;;;;;;;11.12;100.00;101502.69;10479032;28;20111;-70
2024/03/17 19:37:16;;;;;;;0.60;0.60;;;;;;;11.04;100.00;101516.31;10495347;28;20457;-71
2024/03/17 19:42:17;;;;;;;0.50;0.50;;;;;;;10.96;100.00;101509.13;10501958;28;20161;-70
2024/03/17 19:47:18;;;;;;;2.35;2.25;;;;;;;10.91;100.00;101496.16;10503410;28;20028;-71
2024/03/17 19:52:20;;;;;;;0.60;0.60;;;;;;;10.94;100.00;101505.75;10502106;28;20033;-71
2024/03/17 19:57:21;;;;;;;0.60;0.60;;;;;;;10.99;100.00;101510.63;10503464;28;20081;-71
2024/03/17 20:02:21;;;;;;;0.50;0.50;;;;;;;11.06;100.00;101508.84;10503782;28;20115;-71
2024/03/17 20:07:22;;;;;;;0.30;0.30;;;;;;;11.09;100.00;101505.78;10503076;28;20049;-71
2024/03/17 20:12:22;;;;;;;0.85;0.85;;;;;;;11.08;100.00;101499.53;10502863;28;20082;-70
2024/03/17 20:17:23;;;;;;;0.60;0.60;;;;;;;11.07;100.00;101502.41;10502152;28;20055;-72
2024/03/17 20:22:24;;;;;;;0.50;0.50;;;;;;;11.05;100.00;101499.91;10500584;28;20035;-70
2024/03/17 20:27:24;;;;;;;1.48;1.40;;;;;;;11.17;100.00;101503.00;10500152;28;20032;-71
2024/03/17 20:32:26;;;;;;;0.57;0.57;;;;;;;11.22;100.00;101508.69;10501321;28;20035;-71
2024/03/17 20:37:27;;;;;;;1.15;1.08;;;;;;;11.34;100.00;101500.91;10483694;28;20040;-71
2024/03/17 20:42:27;;;;;;;1.83;1.83;;;;;;;11.34;100.00;101490.91;10500985;28;20058;-72
2024/03/17 20:47:27;;;;;;;1.48;1.42;;;;;;;11.39;100.00;101488.50;10500297;28;20110;-70
2024/03/17 20:52:28;;;;;;;2.00;1.95;;;;;;;11.56;100.00;101496.41;10500376;28;20482;-71
2024/03/17 20:57:28;;;;;;;0.75;0.75;;;;;;;11.59;100.00;101494.16;10501218;28;20111;-70
2024/03/17 21:02:29;;;;;;;0.40;0.40;;;;;;;11.56;100.00;101475.56;10500831;28;20443;-72
2024/03/17 21:07:29;;;;;;;0.77;0.77;;;;;;;11.56;100.00;101480.13;10499540;28;20071;-72
2024/03/17 21:12:30;;;;;;;1.52;1.52;;;;;;;11.64;100.00;101488.16;10500278;28;20123;-71
2024/03/17 21:17:31;;;;;;;0.82;0.82;;;;;;;11.68;100.00;101475.91;10498882;28;20116;-72
2024/03/17 21:22:35;;;;;;;0.77;0.77;;;;;;;11.68;100.00;101483.19;10498976;28;20140;-71
2024/03/17 21:27:35;;;;;;;0.50;0.50;;;;;;;11.71;100.00;101480.97;10499034;28;20028;-73
2024/03/17 21:32:36;;;;;;;0.98;0.98;;;;;;;11.74;100.00;101483.28;10481863;28;20036;-72
2024/03/17 21:37:37;;;;;;;2.55;2.15;;;;;;;11.80;100.00;101484.38;10497332;28;20024;-72
2024/03/17 21:42:37;;;;;;;0.85;0.85;;;;;;;11.81;100.00;101486.06;10499626;28;20090;-71
2024/03/17 21:47:39;;;;;;;1.42;1.38;;;;;;;11.75;100.00;101478.69;10499938;28;20032;-71
2024/03/17 21:52:40;;;;;;;1.17;1.17;;;;;;;11.75;100.00;101476.81;10499992;28;20028;-72
2024/03/17 21:57:40;;;;;;;1.17;1.02;;;;;;;11.69;100.00;101464.00;10497651;28;20028;-71
2024/03/17 22:02:40;;;;;;;0.80;0.80;;;;;;;11.63;100.00;101464.78;10497587;28;20063;-71
2024/03/17 22:07:41;;;;;;;1.13;1.13;;;;;;;11.62;100.00;101455.81;10514028;28;20080;-73
2024/03/17 22:12:41;;;;;;;0.82;0.82;;;;;;;11.62;100.00;101458.53;10497654;28;20051;-72
2024/03/17 22:17:42;;;;;;;1.55;1.45;;;;;;;11.60;100.00;101459.72;10499275;28;20493;-72
2024/03/17 22:22:42;;;;;;;1.30;1.30;;;;;;;11.47;100.00;101455.00;10498823;28;20024;-71
2024/03/17 22:27:43;;;;;;;2.10;2.05;;;;;;;11.27;100.00;101454.75;10497549;28;20115;-72
2024/03/17 22:32:43;;;;;;;1.52;1.52;;;;;;;11.12;100.00;101448.47;10496660;28;20027;-72
2024/03/17 22:37:46;;;;;;;0.73;0.73;;;;;;;10.97;100.00;101444.94;10496443;28;20464;-72
2024/03/17 22:42:47;;;;;;;1.38;1.27;;;;;;;10.93;100.00;101439.03;10497014;28;20364;-72
2024/03/17 22:47:47;;;;;;;2.10;2.03;;;;;;;10.87;100.00;101437.09;10495181;28;20071;-71
2024/03/17 22:52:48;;;;;;;0.80;0.80;;;;;;;10.80;100.00;101436.16;10496040;28;20033;-71
2024/03/17 22:57:48;;;;;;;0.65;0.65;;;;;;;10.69;100.00;101424.75;10496633;28;20033;-71